Wetterdaten: Donnerstag, 18.04.2019
Datum Zeit Temp. A. Temp. A. min Temp. A. max Feuchte A. Luftdruck Regen Wind Richtung Richtung Sonnenschein UV Solar Windben
18.04.2019 00:00 14,4 C 14,3 C 14,4 C 54 % 1024,0 hPa 0,0 l/m 3,2 km/h (1 Bft) O-NO 67 0 min 0,0 UV-I 0 W/m 6,4 km/h (2 Bft)
18.04.2019 00:05 14,5 C 14,4 C 14,5 C 54 % 1024,0 hPa 0,0 l/m 1,6 km/h (1 Bft) NO 45 0 min 0,0 UV-I 0 W/m 8,0 km/h (2 Bft)
18.04.2019 00:10 14,5 C 14,4 C 14,5 C 55 % 1024,1 hPa 0,0 l/m 0,0 km/h (0 Bft) N 360 0 min 0,0 UV-I 0 W/m 4,8 km/h (1 Bft)
18.04.2019 00:15 14,3 C 14,3 C 14,5 C 58 % 1024,2 hPa 0,0 l/m 0,0 km/h (0 Bft) O-NO 67 0 min 0,0 UV-I 0 W/m 9,7 km/h (2 Bft)
18.04.2019 00:20 14,3 C 14,2 C 14,3 C 54 % 1024,2 hPa 0,0 l/m 3,2 km/h (1 Bft) NO 45 0 min 0,0 UV-I 0 W/m 14,5 km/h (3 Bft)
18.04.2019 00:25 14,7 C 14,3 C 14,7 C 54 % 1024,3 hPa 0,0 l/m 3,2 km/h (1 Bft) O-NO 67 0 min 0,0 UV-I 0 W/m 11,3 km/h (2 Bft)
18.04.2019 00:30 14,8 C 14,7 C 14,8 C 53 % 1024,2 hPa 0,0 l/m 3,2 km/h (1 Bft) NO 45 0 min 0,0 UV-I 0 W/m 12,9 km/h (3 Bft)
18.04.2019 00:35 15,1 C 14,8 C 15,1 C 52 % 1024,1 hPa 0,0 l/m 1,6 km/h (1 Bft) NO 45 0 min 0,0 UV-I 0 W/m 16,1 km/h (3 Bft)
18.04.2019 00:40 15,1 C 15,1 C 15,1 C 54 % 1024,1 hPa 0,0 l/m 1,6 km/h (1 Bft) N 360 0 min 0,0 UV-I 0 W/m 9,7 km/h (2 Bft)
18.04.2019 00:45 15,1 C 15,1 C 15,1 C 53 % 1024,0 hPa 0,0 l/m 3,2 km/h (1 Bft) NO 45 0 min 0,0 UV-I 0 W/m 12,9 km/h (3 Bft)
18.04.2019 00:50 15,2 C 15,1 C 15,2 C 51 % 1024,1 hPa 0,0 l/m 4,8 km/h (1 Bft) NO 45 0 min 0,0 UV-I 0 W/m 12,9 km/h (3 Bft)
18.04.2019 00:55 15,2 C 15,2 C 15,2 C 51 % 1024,0 hPa 0,0 l/m 4,8 km/h (1 Bft) O-NO 67 0 min 0,0 UV-I 0 W/m 12,9 km/h (3 Bft)
18.04.2019 01:00 15,2 C 15,2 C 15,2 C 51 % 1024,0 hPa 0,0 l/m 4,8 km/h (1 Bft) O-NO 67 0 min 0,0 UV-I 0 W/m 11,3 km/h (2 Bft)
18.04.2019 01:05 15,1 C 15,1 C 15,2 C 50 % 1024,1 hPa 0,0 l/m 4,8 km/h (1 Bft) NO 45 0 min 0,0 UV-I 0 W/m 14,5 km/h (3 Bft)
18.04.2019 01:10 14,9 C 14,9 C 15,1 C 51 % 1024,1 hPa 0,0 l/m 6,4 km/h (2 Bft) O-NO 67 0 min 0,0 UV-I 0 W/m 14,5 km/h (3 Bft)
18.04.2019 01:15 14,8 C 14,8 C 14,9 C 52 % 1024,0 hPa 0,0 l/m 3,2 km/h (1 Bft) O-NO 67 0 min 0,0 UV-I 0 W/m 9,7 km/h (2 Bft)
18.04.2019 01:20 14,7 C 14,7 C 14,8 C 52 % 1024,0 hPa 0,0 l/m 4,8 km/h (1 Bft) O-NO 67 0 min 0,0 UV-I 0 W/m 11,3 km/h (2 Bft)
18.04.2019 01:25 14,6 C 14,6 C 14,7 C 52 % 1024,0 hPa 0,0 l/m 1,6 km/h (1 Bft) O-NO 67 0 min 0,0 UV-I 0 W/m 6,4 km/h (2 Bft)
18.04.2019 01:30 14,4 C 14,4 C 14,6 C 52 % 1024,0 hPa 0,0 l/m 3,2 km/h (1 Bft) O-NO 67 0 min 0,0 UV-I 0 W/m 9,7 km/h (2 Bft)
18.04.2019 01:35 14,3 C 14,3 C 14,4 C 53 % 1024,1 hPa 0,0 l/m 1,6 km/h (1 Bft) O 90 0 min 0,0 UV-I 0 W/m 8,0 km/h (2 Bft)
18.04.2019 01:40 14,2 C 14,2 C 14,3 C 53 % 1024,1 hPa 0,0 l/m 1,6 km/h (1 Bft) O 90 0 min 0,0 UV-I 0 W/m 4,8 km/h (1 Bft)
18.04.2019 01:45 14,1 C 14,1 C 14,2 C 54 % 1024,0 hPa 0,0 l/m 0,0 km/h (0 Bft) O-NO 67 0 min 0,0 UV-I 0 W/m 3,2 km/h (1 Bft)
18.04.2019 01:50 13,9 C 13,9 C 14,1 C 55 % 1024,1 hPa 0,0 l/m 1,6 km/h (1 Bft) O-SO 112 0 min 0,0 UV-I 0 W/m 6,4 km/h (2 Bft)
18.04.2019 01:55 13,7 C 13,7 C 13,9 C 55 % 1024,1 hPa 0,0 l/m 0,0 km/h (0 Bft) O 90 0 min 0,0 UV-I 0 W/m 3,2 km/h (1 Bft)
18.04.2019 02:00 13,5 C 13,5 C 13,7 C 55 % 1024,1 hPa 0,0 l/m 0,0 km/h (0 Bft) N 0 0 min 0,0 UV-I 0 W/m 0,0 km/h (0 Bft)
18.04.2019 02:05 13,3 C 13,3 C 13,6 C 57 % 1024,1 hPa 0,0 l/m 0,0 km/h (0 Bft) O 90 0 min 0,0 UV-I 0 W/m 1,6 km/h (1 Bft)
18.04.2019 02:10 13,2 C 13,2 C 13,3 C 58 % 1024,1 hPa 0,0 l/m 0,0 km/h (0 Bft) N 0 0 min 0,0 UV-I 0 W/m 0,0 km/h (0 Bft)
18.04.2019 02:15 13,1 C 13,1 C 13,2 C 60 % 1024,2 hPa 0,0 l/m 0,0 km/h (0 Bft) N 0 0 min 0,0 UV-I 0 W/m 0,0 km/h (0 Bft)
18.04.2019 02:20 12,9 C 12,9 C 13,1 C 62 % 1024,1 hPa 0,0 l/m 0,0 km/h (0 Bft) N 0 0 min 0,0 UV-I 0 W/m 0,0 km/h (0 Bft)
18.04.2019 02:25 12,8 C 12,7 C 12,9 C 61 % 1024,2 hPa 0,0 l/m 0,0 km/h (0 Bft) N 0 0 min 0,0 UV-I 0 W/m 0,0 km/h (0 Bft)
18.04.2019 02:30 12,6 C 12,6 C 12,8 C 60 % 1024,2 hPa 0,0 l/m 0,0 km/h (0 Bft) N 0 0 min 0,0 UV-I 0 W/m 0,0 km/h (0 Bft)
18.04.2019 02:35 12,4 C 12,4 C 12,6 C 59 % 1024,2 hPa 0,0 l/m 0,0 km/h (0 Bft) O 90 0 min 0,0 UV-I 0 W/m 1,6 km/h (1 Bft)
18.04.2019 02:40 12,7 C 12,4 C 12,7 C 56 % 1024,1 hPa 0,0 l/m 0,0 km/h (0 Bft) O-NO 67 0 min 0,0 UV-I 0 W/m 1,6 km/h (1 Bft)
18.04.2019 02:45 12,9 C 12,7 C 12,9 C 55 % 1024,2 hPa 0,0 l/m 0,0 km/h (0 Bft) O-NO 67 0 min 0,0 UV-I 0 W/m 3,2 km/h (1 Bft)
18.04.2019 02:50 13,1 C 12,9 C 13,1 C 54 % 1024,1 hPa 0,0 l/m 0,0 km/h (0 Bft) O-NO 67 0 min 0,0 UV-I 0 W/m 3,2 km/h (1 Bft)
18.04.2019 02:55 13,2 C 13,1 C 13,2 C 53 % 1024,2 hPa 0,0 l/m 1,6 km/h (1 Bft) O-NO 67 0 min 0,0 UV-I 0 W/m 3,2 km/h (1 Bft)
18.04.2019 03:00 13,4 C 13,2 C 13,4 C 52 % 1024,2 hPa 0,0 l/m 0,0 km/h (0 Bft) NO 45 0 min 0,0 UV-I 0 W/m 3,2 km/h (1 Bft)
18.04.2019 03:05 13,6 C 13,4 C 13,6 C 51 % 1024,1 hPa 0,0 l/m 0,0 km/h (0 Bft) NO 45 0 min 0,0 UV-I 0 W/m 1,6 km/h (1 Bft)
18.04.2019 03:10 13,7 C 13,6 C 13,7 C 51 % 1024,2 hPa 0,0 l/m 0,0 km/h (0 Bft) NO 45 0 min 0,0 UV-I 0 W/m 4,8 km/h (1 Bft)
18.04.2019 03:15 13,8 C 13,7 C 13,8 C 50 % 1024,2 hPa 0,0 l/m 0,0 km/h (0 Bft) NO 45 0 min 0,0 UV-I 0 W/m 3,2 km/h (1 Bft)
18.04.2019 03:20 13,9 C 13,8 C 13,9 C 51 % 1024,2 hPa 0,0 l/m 0,0 km/h (0 Bft) NO 45 0 min 0,0 UV-I 0 W/m 1,6 km/h (1 Bft)
18.04.2019 03:25 13,9 C 13,8 C 13,9 C 49 % 1024,2 hPa 0,0 l/m 1,6 km/h (1 Bft) NO 45 0 min 0,0 UV-I 0 W/m 4,8 km/h (1 Bft)
18.04.2019 03:30 14,1 C 14,0 C 14,1 C 47 % 1024,3 hPa 0,0 l/m 1,6 km/h (1 Bft) NO 45 0 min 0,0 UV-I 0 W/m 4,8 km/h (1 Bft)
18.04.2019 03:35 14,3 C 14,1 C 14,3 C 47 % 1024,2 hPa 0,0 l/m 3,2 km/h (1 Bft) NO 45 0 min 0,0 UV-I 0 W/m 6,4 km/h (2 Bft)
18.04.2019 03:40 14,4 C 14,3 C 14,4 C 46 % 1024,2 hPa 0,0 l/m 3,2 km/h (1 Bft) NO 45 0 min 0,0 UV-I 0 W/m 8,0 km/h (2 Bft)
18.04.2019 03:45 14,5 C 14,4 C 14,5 C 45 % 1024,3 hPa 0,0 l/m 3,2 km/h (1 Bft) NO 45 0 min 0,0 UV-I 0 W/m 6,4 km/h (2 Bft)
18.04.2019 03:50 14,5 C 14,5 C 14,6 C 46 % 1024,2 hPa 0,0 l/m 3,2 km/h (1 Bft) NO 45 0 min 0,0 UV-I 0 W/m 6,4 km/h (2 Bft)
18.04.2019 03:55 14,5 C 14,5 C 14,6 C 46 % 1024,3 hPa 0,0 l/m 3,2 km/h (1 Bft) O-NO 67 0 min 0,0 UV-I 0 W/m 8,0 km/h (2 Bft)
18.04.2019 04:00 14,4 C 14,4 C 14,6 C 46 % 1024,3 hPa 0,0 l/m 1,6 km/h (1 Bft) NO 45 0 min 0,0 UV-I 0 W/m 4,8 km/h (1 Bft)
18.04.2019 04:05 14,4 C 14,3 C 14,4 C 47 % 1024,4 hPa 0,0 l/m 0,0 km/h (0 Bft) O-NO 67 0 min 0,0 UV-I 0 W/m 3,2 km/h (1 Bft)
18.04.2019 04:10 14,3 C 14,3 C 14,4 C 46 % 1024,5 hPa 0,0 l/m 1,6 km/h (1 Bft) NO 45 0 min 0,0 UV-I 0 W/m 6,4 km/h (2 Bft)
18.04.2019 04:15 14,3 C 14,3 C 14,3 C 46 % 1024,6 hPa 0,0 l/m 1,6 km/h (1 Bft) O-NO 67 0 min 0,0 UV-I 0 W/m 4,8 km/h (1 Bft)
18.04.2019 04:20 14,3 C 14,3 C 14,3 C 49 % 1024,5 hPa 0,0 l/m 1,6 km/h (1 Bft) N-NO 22 0 min 0,0 UV-I 0 W/m 4,8 km/h (1 Bft)
18.04.2019 04:25 14,2 C 14,2 C 14,3 C 50 % 1024,7 hPa 0,0 l/m 1,6 km/h (1 Bft) N 360 0 min 0,0 UV-I 0 W/m 4,8 km/h (1 Bft)
18.04.2019 04:30 13,9 C 13,9 C 14,2 C 52 % 1024,7 hPa 0,0 l/m 0,0 km/h (0 Bft) N 360 0 min 0,0 UV-I 0 W/m 3,2 km/h (1 Bft)
18.04.2019 04:35 13,8 C 13,8 C 14,0 C 52 % 1024,8 hPa 0,0 l/m 0,0 km/h (0 Bft) N 360 0 min 0,0 UV-I 0 W/m 3,2 km/h (1 Bft)
18.04.2019 04:40 13,7 C 13,7 C 13,8 C 54 % 1024,7 hPa 0,0 l/m 1,6 km/h (1 Bft) N 360 0 min 0,0 UV-I 0 W/m 3,2 km/h (1 Bft)
18.04.2019 04:45 13,5 C 13,5 C 13,7 C 54 % 1024,7 hPa 0,0 l/m 1,6 km/h (1 Bft) N 360 0 min 0,0 UV-I 0 W/m 3,2 km/h (1 Bft)
18.04.2019 04:50 13,3 C 13,3 C 13,5 C 54 % 1024,8 hPa 0,0 l/m 1,6 km/h (1 Bft) N 360 0 min 0,0 UV-I 0 W/m 6,4 km/h (2 Bft)
18.04.2019 04:55 13,3 C 13,3 C 13,3 C 55 % 1024,8 hPa 0,0 l/m 1,6 km/h (1 Bft) N-NO 22 0 min 0,0 UV-I 0 W/m 4,8 km/h (1 Bft)
18.04.2019 05:00 13,2 C 13,2 C 13,3 C 55 % 1024,7 hPa 0,0 l/m 0,0 km/h (0 Bft) N-NO 22 0 min 0,0 UV-I 0 W/m 3,2 km/h (1 Bft)
18.04.2019 05:05 13,3 C 13,2 C 13,3 C 52 % 1024,7 hPa 0,0 l/m 1,6 km/h (1 Bft) O-NO 67 0 min 0,0 UV-I 0 W/m 6,4 km/h (2 Bft)
18.04.2019 05:10 13,6 C 13,3 C 13,6 C 50 % 1024,7 hPa 0,0 l/m 1,6 km/h (1 Bft) NO 45 0 min 0,0 UV-I 0 W/m 6,4 km/h (2 Bft)
18.04.2019 05:15 13,8 C 13,6 C 13,8 C 50 % 1024,8 hPa 0,0 l/m 1,6 km/h (1 Bft) NO 45 0 min 0,0 UV-I 0 W/m 6,4 km/h (2 Bft)
18.04.2019 05:20 13,9 C 13,8 C 13,9 C 50 % 1024,7 hPa 0,0 l/m 1,6 km/h (1 Bft) O-NO 67 0 min 0,0 UV-I 0 W/m 6,4 km/h (2 Bft)
18.04.2019 05:25 13,9 C 13,8 C 13,9 C 49 % 1024,7 hPa 0,0 l/m 1,6 km/h (1 Bft) O-NO 67 0 min 0,0 UV-I 0 W/m 6,4 km/h (2 Bft)
18.04.2019 05:30 13,9 C 13,8 C 13,9 C 50 % 1024,7 hPa 0,0 l/m 1,6 km/h (1 Bft) NO 45 0 min 0,0 UV-I 0 W/m 6,4 km/h (2 Bft)
18.04.2019 05:35 13,8 C 13,8 C 13,9 C 51 % 1024,7 hPa 0,0 l/m 0,0 km/h (0 Bft) N-NO 22 0 min 0,0 UV-I 0 W/m 4,8 km/h (1 Bft)
18.04.2019 05:40 13,8 C 13,8 C 13,8 C 50 % 1024,7 hPa 0,0 l/m 1,6 km/h (1 Bft) O-NO 67 0 min 0,0 UV-I 0 W/m 6,4 km/h (2 Bft)
18.04.2019 05:45 13,8 C 13,8 C 13,8 C 50 % 1024,7 hPa 0,0 l/m 3,2 km/h (1 Bft) O-NO 67 0 min 0,0 UV-I 0 W/m 8,0 km/h (2 Bft)
18.04.2019 05:50 13,7 C 13,7 C 13,8 C 51 % 1024,8 hPa 0,0 l/m 1,6 km/h (1 Bft) O-NO 67 0 min 0,0 UV-I 0 W/m 6,4 km/h (2 Bft)
18.04.2019 05:55 13,6 C 13,6 C 13,7 C 52 % 1024,8 hPa 0,0 l/m 3,2 km/h (1 Bft) O-NO 67 0 min 0,0 UV-I 0 W/m 8,0 km/h (2 Bft)
18.04.2019 06:00 13,6 C 13,6 C 13,6 C 51 % 1024,8 hPa 0,0 l/m 3,2 km/h (1 Bft) O-NO 67 0 min 0,0 UV-I 0 W/m 11,3 km/h (2 Bft)
18.04.2019 06:05 13,6 C 13,6 C 13,6 C 51 % 1024,8 hPa 0,0 l/m 3,2 km/h (1 Bft) O-NO 67 0 min 0,0 UV-I 0 W/m 6,4 km/h (2 Bft)
18.04.2019 06:10 13,4 C 13,4 C 13,6 C 51 % 1024,9 hPa 0,0 l/m 4,8 km/h (1 Bft) NO 45 0 min 0,0 UV-I 0 W/m 9,7 km/h (2 Bft)
18.04.2019 06:15 13,4 C 13,4 C 13,5 C 51 % 1024,9 hPa 0,0 l/m 1,6 km/h (1 Bft) NO 45 0 min 0,0 UV-I 0 W/m 6,4 km/h (2 Bft)
18.04.2019 06:20 13,5 C 13,4 C 13,5 C 51 % 1024,9 hPa 0,0 l/m 3,2 km/h (1 Bft) O-NO 67 0 min 0,0 UV-I 0 W/m 8,0 km/h (2 Bft)
18.04.2019 06:25 13,5 C 13,4 C 13,6 C 51 % 1025,0 hPa 0,0 l/m 3,2 km/h (1 Bft) NO 45 0 min 0,0 UV-I 0 W/m 9,7 km/h (2 Bft)
18.04.2019 06:30 13,5 C 13,4 C 13,5 C 51 % 1025,0 hPa 0,0 l/m 3,2 km/h (1 Bft) O-NO 67 0 min 0,0 UV-I 0 W/m 8,0 km/h (2 Bft)
18.04.2019 06:35 13,4 C 13,4 C 13,5 C 52 % 1025,0 hPa 0,0 l/m 1,6 km/h (1 Bft) O-NO 67 0 min 0,0 UV-I 0 W/m 6,4 km/h (2 Bft)
18.04.2019 06:40 13,3 C 13,3 C 13,4 C 52 % 1025,1 hPa 0,0 l/m 1,6 km/h (1 Bft) O-NO 67 0 min 0,0 UV-I 0 W/m 4,8 km/h (1 Bft)
18.04.2019 06:45 13,2 C 13,2 C 13,3 C 55 % 1025,2 hPa 0,0 l/m 1,6 km/h (1 Bft) N 360 0 min 0,0 UV-I 0 W/m 6,4 km/h (2 Bft)
18.04.2019 06:50 13,0 C 13,0 C 13,2 C 54 % 1025,2 hPa 0,0 l/m 3,2 km/h (1 Bft) NO 45 0 min 0,0 UV-I 5 W/m 9,7 km/h (2 Bft)
18.04.2019 06:55 13,1 C 13,0 C 13,1 C 53 % 1025,2 hPa 0,0 l/m 3,2 km/h (1 Bft) O-NO 67 0 min 0,0 UV-I 7 W/m 9,7 km/h (2 Bft)
18.04.2019 07:00 13,0 C 12,9 C 13,1 C 54 % 1025,2 hPa 0,0 l/m 3,2 km/h (1 Bft) NO 45 0 min 0,0 UV-I 9 W/m 8,0 km/h (2 Bft)
18.04.2019 07:05 12,9 C 12,9 C 13,0 C 54 % 1025,3 hPa 0,0 l/m 3,2 km/h (1 Bft) O-NO 67 0 min 0,0 UV-I 11 W/m 8,0 km/h (2 Bft)
18.04.2019 07:10 13,0 C 12,9 C 13,0 C 54 % 1025,2 hPa 0,0 l/m 3,2 km/h (1 Bft) NO 45 0 min 0,0 UV-I 12 W/m 8,0 km/h (2 Bft)
18.04.2019 07:15 13,0 C 13,0 C 13,0 C 54 % 1025,3 hPa 0,0 l/m 4,8 km/h (1 Bft) O-NO 67 0 min 0,0 UV-I 14 W/m 14,5 km/h (3 Bft)
18.04.2019 07:20 12,9 C 12,9 C 13,0 C 54 % 1025,2 hPa 0,0 l/m 1,6 km/h (1 Bft) O-NO 67 0 min 0,0 UV-I 18 W/m 6,4 km/h (2 Bft)
18.04.2019 07:25 12,9 C 12,9 C 12,9 C 55 % 1025,3 hPa 0,0 l/m 3,2 km/h (1 Bft) O-NO 67 0 min 0,0 UV-I 19 W/m 8,0 km/h (2 Bft)
18.04.2019 07:30 12,8 C 12,8 C 12,9 C 57 % 1025,4 hPa 0,0 l/m 0,0 km/h (0 Bft) NO 45 0 min 0,0 UV-I 21 W/m 3,2 km/h (1 Bft)
18.04.2019 07:35 12,6 C 12,6 C 12,8 C 57 % 1025,4 hPa 0,0 l/m 1,6 km/h (1 Bft) O 90 0 min 0,0 UV-I 23 W/m 4,8 km/h (1 Bft)
18.04.2019 07:40 12,5 C 12,5 C 12,6 C 56 % 1025,5 hPa 0,0 l/m 3,2 km/h (1 Bft) O-NO 67 0 min 0,0 UV-I 25 W/m 11,3 km/h (2 Bft)
18.04.2019 07:45 12,5 C 12,5 C 12,6 C 56 % 1025,6 hPa 0,0 l/m 3,2 km/h (1 Bft) NO 45 0 min 0,0 UV-I 28 W/m 9,7 km/h (2 Bft)
18.04.2019 07:50 12,6 C 12,6 C 12,6 C 56 % 1025,6 hPa 0,0 l/m 3,2 km/h (1 Bft) O-NO 67 0 min 0,0 UV-I 30 W/m 6,4 km/h (2 Bft)
18.04.2019 07:55 12,7 C 12,6 C 12,7 C 57 % 1025,6 hPa 0,0 l/m 3,2 km/h (1 Bft) NO 45 0 min 0,0 UV-I 37 W/m 8,0 km/h (2 Bft)
18.04.2019 08:00 12,8 C 12,7 C 12,8 C 55 % 1025,7 hPa 0,0 l/m 4,8 km/h (1 Bft) NO 45 0 min 0,0 UV-I 37 W/m 9,7 km/h (2 Bft)
18.04.2019 08:05 12,8 C 12,8 C 12,8 C 56 % 1025,8 hPa 0,0 l/m 3,2 km/h (1 Bft) NO 45 0 min 0,0 UV-I 35 W/m 14,5 km/h (3 Bft)
18.04.2019 08:10 12,9 C 12,8 C 12,9 C 55 % 1025,8 hPa 0,0 l/m 4,8 km/h (1 Bft) NO 45 0 min 0,0 UV-I 39 W/m 12,9 km/h (3 Bft)
18.04.2019 08:15 12,8 C 12,8 C 12,9 C 56 % 1025,9 hPa 0,0 l/m 6,4 km/h (2 Bft) O-NO 67 0 min 0,0 UV-I 44 W/m 16,1 km/h (3 Bft)
18.04.2019 08:20 12,8 C 12,7 C 12,8 C 56 % 1025,9 hPa 0,0 l/m 6,4 km/h (2 Bft) O-NO 67 0 min 0,0 UV-I 51 W/m 14,5 km/h (3 Bft)
18.04.2019 08:25 12,8 C 12,7 C 12,8 C 56 % 1025,9 hPa 0,0 l/m 4,8 km/h (1 Bft) NO 45 0 min 0,0 UV-I 54 W/m 11,3 km/h (2 Bft)
18.04.2019 08:30 12,8 C 12,8 C 12,8 C 56 % 1026,0 hPa 0,0 l/m 4,8 km/h (1 Bft) NO 45 0 min 0,5 UV-I 63 W/m 12,9 km/h (3 Bft)
18.04.2019 08:35 12,8 C 12,8 C 12,8 C 56 % 1026,0 hPa 0,0 l/m 3,2 km/h (1 Bft) O-NO 67 0 min 0,6 UV-I 72 W/m 9,7 km/h (2 Bft)
18.04.2019 08:40 12,9 C 12,8 C 12,9 C 57 % 1026,1 hPa 0,0 l/m 4,8 km/h (1 Bft) O 90 0 min 0,6 UV-I 86 W/m 14,5 km/h (3 Bft)
18.04.2019 08:45 12,9 C 12,9 C 12,9 C 57 % 1026,1 hPa 0,0 l/m 4,8 km/h (1 Bft) O-NO 67 0 min 0,7 UV-I 98 W/m 14,5 km/h (3 Bft)
18.04.2019 08:50 12,9 C 12,9 C 12,9 C 57 % 1026,1 hPa 0,0 l/m 6,4 km/h (2 Bft) O-NO 67 0 min 0,7 UV-I 116 W/m 14,5 km/h (3 Bft)
18.04.2019 08:55 13,1 C 12,9 C 13,1 C 57 % 1026,2 hPa 0,0 l/m 4,8 km/h (1 Bft) NO 45 0 min 0,8 UV-I 139 W/m 14,5 km/h (3 Bft)
18.04.2019 09:00 13,1 C 13,0 C 13,1 C 57 % 1026,2 hPa 0,0 l/m 4,8 km/h (1 Bft) O-NO 67 0 min 0,9 UV-I 162 W/m 11,3 km/h (2 Bft)
18.04.2019 09:05 13,3 C 13,1 C 13,3 C 57 % 1026,2 hPa 0,0 l/m 4,8 km/h (1 Bft) O-NO 67 5 min 1,0 UV-I 230 W/m 14,5 km/h (3 Bft)
18.04.2019 09:10 13,7 C 13,3 C 13,7 C 56 % 1026,2 hPa 0,0 l/m 4,8 km/h (1 Bft) O-NO 67 5 min 1,2 UV-I 283 W/m 12,9 km/h (3 Bft)
18.04.2019 09:15 13,9 C 13,7 C 13,9 C 55 % 1026,3 hPa 0,0 l/m 6,4 km/h (2 Bft) O-NO 67 5 min 1,2 UV-I 272 W/m 12,9 km/h (3 Bft)
18.04.2019 09:20 14,1 C 14,0 C 14,1 C 56 % 1026,3 hPa 0,0 l/m 4,8 km/h (1 Bft) O-NO 67 5 min 1,2 UV-I 237 W/m 14,5 km/h (3 Bft)
18.04.2019 09:25 14,3 C 14,1 C 14,3 C 54 % 1026,3 hPa 0,0 l/m 4,8 km/h (1 Bft) O-NO 67 5 min 1,4 UV-I 297 W/m 16,1 km/h (3 Bft)
18.04.2019 09:30 14,7 C 14,3 C 14,7 C 54 % 1026,2 hPa 0,0 l/m 4,8 km/h (1 Bft) NO 45 5 min 1,5 UV-I 376 W/m 11,3 km/h (2 Bft)
18.04.2019 09:35 15,2 C 14,7 C 15,2 C 52 % 1026,2 hPa 0,0 l/m 3,2 km/h (1 Bft) O-NO 67 5 min 1,6 UV-I 369 W/m 9,7 km/h (2 Bft)
18.04.2019 09:40 15,5 C 15,2 C 15,5 C 52 % 1026,2 hPa 0,0 l/m 4,8 km/h (1 Bft) O-NO 67 5 min 1,6 UV-I 378 W/m 9,7 km/h (2 Bft)
18.04.2019 09:45 15,7 C 15,5 C 15,7 C 51 % 1026,3 hPa 0,0 l/m 4,8 km/h (1 Bft) O-NO 67 5 min 1,7 UV-I 385 W/m 9,7 km/h (2 Bft)
18.04.2019 09:50 16,0 C 15,8 C 16,0 C 50 % 1026,2 hPa 0,0 l/m 4,8 km/h (1 Bft) NO 45 5 min 1,8 UV-I 394 W/m 9,7 km/h (2 Bft)
18.04.2019 09:55 16,2 C 16,0 C 16,2 C 50 % 1026,2 hPa 0,0 l/m 4,8 km/h (1 Bft) O-NO 67 5 min 1,9 UV-I 411 W/m 11,3 km/h (2 Bft)
18.04.2019 10:00 16,3 C 16,2 C 16,3 C 50 % 1026,2 hPa 0,0 l/m 3,2 km/h (1 Bft) O 90 5 min 2,0 UV-I 424 W/m 11,3 km/h (2 Bft)
18.04.2019 10:05 16,6 C 16,3 C 16,6 C 50 % 1026,3 hPa 0,0 l/m 4,8 km/h (1 Bft) O-NO 67 5 min 2,1 UV-I 438 W/m 12,9 km/h (3 Bft)
18.04.2019 10:10 16,8 C 16,6 C 16,8 C 50 % 1026,3 hPa 0,0 l/m 3,2 km/h (1 Bft) O 90 5 min 2,2 UV-I 452 W/m 11,3 km/h (2 Bft)
18.04.2019 10:15 16,9 C 16,8 C 16,9 C 48 % 1026,3 hPa 0,0 l/m 6,4 km/h (2 Bft) O-NO 67 5 min 2,3 UV-I 466 W/m 12,9 km/h (3 Bft)
18.04.2019 10:20 17,2 C 16,9 C 17,2 C 49 % 1026,3 hPa 0,0 l/m 3,2 km/h (1 Bft) O-NO 67 5 min 2,4 UV-I 475 W/m 9,7 km/h (2 Bft)
18.04.2019 10:25 17,4 C 17,2 C 17,4 C 48 % 1026,4 hPa 0,0 l/m 3,2 km/h (1 Bft) O-SO 112 5 min 2,5 UV-I 487 W/m 12,9 km/h (3 Bft)
18.04.2019 10:30 17,7 C 17,4 C 17,7 C 47 % 1026,3 hPa 0,0 l/m 4,8 km/h (1 Bft) NO 45 5 min 2,6 UV-I 497 W/m 11,3 km/h (2 Bft)
18.04.2019 10:35 17,7 C 17,6 C 17,7 C 48 % 1026,4 hPa 0,0 l/m 4,8 km/h (1 Bft) O-NO 67 5 min 2,7 UV-I 510 W/m 12,9 km/h (3 Bft)
18.04.2019 10:40 17,8 C 17,8 C 17,8 C 47 % 1026,3 hPa 0,0 l/m 4,8 km/h (1 Bft) O 90 5 min 2,8 UV-I 520 W/m 11,3 km/h (2 Bft)
18.04.2019 10:45 18,1 C 17,8 C 18,1 C 47 % 1026,4 hPa 0,0 l/m 3,2 km/h (1 Bft) O-SO 112 5 min 2,8 UV-I 529 W/m 11,3 km/h (2 Bft)
18.04.2019 10:50 18,3 C 18,1 C 18,3 C 48 % 1026,4 hPa 0,0 l/m 3,2 km/h (1 Bft) O 90 5 min 2,9 UV-I 536 W/m 9,7 km/h (2 Bft)
18.04.2019 10:55 18,5 C 18,3 C 18,5 C 48 % 1026,3 hPa 0,0 l/m 3,2 km/h (1 Bft) SO 135 5 min 3,0 UV-I 547 W/m 8,0 km/h (2 Bft)
18.04.2019 11:00 18,8 C 18,5 C 18,8 C 46 % 1026,2 hPa 0,0 l/m 3,2 km/h (1 Bft) O-NO 67 5 min 3,1 UV-I 555 W/m 9,7 km/h (2 Bft)
18.04.2019 11:05 19,1 C 18,8 C 19,1 C 45 % 1026,2 hPa 0,0 l/m 4,8 km/h (1 Bft) O 90 5 min 3,2 UV-I 571 W/m 11,3 km/h (2 Bft)
18.04.2019 11:10 19,3 C 19,1 C 19,3 C 45 % 1026,0 hPa 0,0 l/m 3,2 km/h (1 Bft) O-SO 112 5 min 3,3 UV-I 580 W/m 9,7 km/h (2 Bft)
18.04.2019 11:15 19,7 C 19,3 C 19,7 C 44 % 1026,0 hPa 0,0 l/m 4,8 km/h (1 Bft) O-SO 112 5 min 3,4 UV-I 589 W/m 12,9 km/h (3 Bft)
18.04.2019 11:20 19,9 C 19,7 C 19,9 C 43 % 1025,8 hPa 0,0 l/m 6,4 km/h (2 Bft) O-SO 112 5 min 3,4 UV-I 594 W/m 17,7 km/h (3 Bft)
18.04.2019 11:25 20,0 C 19,9 C 20,1 C 40 % 1025,9 hPa 0,0 l/m 8,0 km/h (2 Bft) O-SO 112 5 min 3,5 UV-I 603 W/m 17,7 km/h (3 Bft)
18.04.2019 11:30 20,3 C 20,0 C 20,3 C 40 % 1026,0 hPa 0,0 l/m 4,8 km/h (1 Bft) O 90 5 min 3,6 UV-I 612 W/m 14,5 km/h (3 Bft)
18.04.2019 11:35 20,4 C 20,3 C 20,4 C 39 % 1026,0 hPa 0,0 l/m 4,8 km/h (1 Bft) O 90 5 min 3,6 UV-I 621 W/m 11,3 km/h (2 Bft)
18.04.2019 11:40 20,4 C 20,4 C 20,4 C 39 % 1025,9 hPa 0,0 l/m 8,0 km/h (2 Bft) O 90 5 min 3,7 UV-I 628 W/m 14,5 km/h (3 Bft)
18.04.2019 11:45 20,4 C 20,4 C 20,5 C 38 % 1025,9 hPa 0,0 l/m 6,4 km/h (2 Bft) O 90 5 min 3,8 UV-I 636 W/m 16,1 km/h (3 Bft)
18.04.2019 11:50 20,4 C 20,4 C 20,4 C 40 % 1025,9 hPa 0,0 l/m 8,0 km/h (2 Bft) O 90 5 min 3,8 UV-I 638 W/m 16,1 km/h (3 Bft)
18.04.2019 11:55 20,7 C 20,5 C 20,7 C 40 % 1025,8 hPa 0,0 l/m 8,0 km/h (2 Bft) O 90 5 min 3,9 UV-I 650 W/m 17,7 km/h (3 Bft)
18.04.2019 12:00 20,6 C 20,6 C 20,7 C 36 % 1025,9 hPa 0,0 l/m 9,7 km/h (2 Bft) O 90 5 min 3,9 UV-I 656 W/m 22,5 km/h (4 Bft)
18.04.2019 12:05 20,7 C 20,6 C 20,7 C 36 % 1025,8 hPa 0,0 l/m 8,0 km/h (2 Bft) O-SO 112 5 min 4,0 UV-I 659 W/m 17,7 km/h (3 Bft)
18.04.2019 12:10 20,8 C 20,7 C 20,8 C 36 % 1025,8 hPa 0,0 l/m 8,0 km/h (2 Bft) O 90 5 min 4,1 UV-I 671 W/m 25,7 km/h (4 Bft)
18.04.2019 12:15 20,9 C 20,8 C 20,9 C 39 % 1025,8 hPa 0,0 l/m 8,0 km/h (2 Bft) O-SO 112 5 min 4,1 UV-I 675 W/m 19,3 km/h (3 Bft)
18.04.2019 12:20 21,0 C 20,9 C 21,1 C 36 % 1025,9 hPa 0,0 l/m 8,0 km/h (2 Bft) O-SO 112 5 min 4,1 UV-I 680 W/m 17,7 km/h (3 Bft)
18.04.2019 12:25 21,1 C 20,9 C 21,1 C 38 % 1025,9 hPa 0,0 l/m 6,4 km/h (2 Bft) O 90 5 min 4,2 UV-I 687 W/m 19,3 km/h (3 Bft)
18.04.2019 12:30 21,2 C 21,1 C 21,2 C 39 % 1025,9 hPa 0,0 l/m 6,4 km/h (2 Bft) O 90 5 min 4,2 UV-I 691 W/m 17,7 km/h (3 Bft)
18.04.2019 12:35 21,3 C 21,2 C 21,3 C 37 % 1025,8 hPa 0,0 l/m 9,7 km/h (2 Bft) O 90 5 min 4,3 UV-I 694 W/m 17,7 km/h (3 Bft)
18.04.2019 12:40 21,4 C 21,3 C 21,4 C 36 % 1025,7 hPa 0,0 l/m 4,8 km/h (1 Bft) O 90 5 min 4,3 UV-I 696 W/m 14,5 km/h (3 Bft)
18.04.2019 12:45 21,5 C 21,4 C 21,5 C 36 % 1025,6 hPa 0,0 l/m 8,0 km/h (2 Bft) O 90 5 min 4,3 UV-I 701 W/m 20,9 km/h (4 Bft)
18.04.2019 12:50 21,6 C 21,5 C 21,7 C 34 % 1025,7 hPa 0,0 l/m 8,0 km/h (2 Bft) O-NO 67 5 min 4,4 UV-I 705 W/m 20,9 km/h (4 Bft)
18.04.2019 12:55 21,7 C 21,6 C 21,8 C 33 % 1025,7 hPa 0,0 l/m 6,4 km/h (2 Bft) NO 45 5 min 4,4 UV-I 707 W/m 20,9 km/h (4 Bft)
18.04.2019 13:00 21,7 C 21,6 C 21,7 C 36 % 1025,6 hPa 0,0 l/m 8,0 km/h (2 Bft) O 90 5 min 4,4 UV-I 707 W/m 19,3 km/h (3 Bft)
18.04.2019 13:05 21,7 C 21,6 C 21,8 C 34 % 1025,6 hPa 0,0 l/m 8,0 km/h (2 Bft) O 90 5 min 4,4 UV-I 714 W/m 20,9 km/h (4 Bft)
18.04.2019 13:10 21,8 C 21,7 C 21,8 C 35 % 1025,6 hPa 0,0 l/m 9,7 km/h (2 Bft) O-SO 112 5 min 4,4 UV-I 710 W/m 20,9 km/h (4 Bft)
18.04.2019 13:15 21,7 C 21,7 C 21,8 C 34 % 1025,4 hPa 0,0 l/m 8,0 km/h (2 Bft) O-NO 67 5 min 4,4 UV-I 715 W/m 24,1 km/h (4 Bft)
18.04.2019 13:20 21,7 C 21,6 C 21,7 C 34 % 1025,5 hPa 0,0 l/m 11,3 km/h (2 Bft) O 90 5 min 4,5 UV-I 722 W/m 22,5 km/h (4 Bft)
18.04.2019 13:25 21,8 C 21,7 C 21,8 C 33 % 1025,5 hPa 0,0 l/m 11,3 km/h (2 Bft) O 90 5 min 4,5 UV-I 721 W/m 27,4 km/h (5 Bft)
18.04.2019 13:30 21,8 C 21,8 C 21,8 C 32 % 1025,4 hPa 0,0 l/m 11,3 km/h (2 Bft) O 90 5 min 4,5 UV-I 724 W/m 27,4 km/h (5 Bft)
18.04.2019 13:35 21,9 C 21,8 C 21,9 C 33 % 1025,3 hPa 0,0 l/m 11,3 km/h (2 Bft) O 90 5 min 4,5 UV-I 729 W/m 20,9 km/h (4 Bft)
18.04.2019 13:40 22,1 C 21,9 C 22,1 C 33 % 1025,3 hPa 0,0 l/m 6,4 km/h (2 Bft) O-NO 67 5 min 4,5 UV-I 731 W/m 17,7 km/h (3 Bft)
18.04.2019 13:45 22,2 C 22,1 C 22,2 C 35 % 1025,3 hPa 0,0 l/m 6,4 km/h (2 Bft) O 90 5 min 4,5 UV-I 729 W/m 19,3 km/h (3 Bft)
18.04.2019 13:50 22,3 C 22,2 C 22,3 C 35 % 1025,2 hPa 0,0 l/m 4,8 km/h (1 Bft) O 90 5 min 4,5 UV-I 735 W/m 12,9 km/h (3 Bft)
18.04.2019 13:55 22,3 C 22,3 C 22,3 C 35 % 1025,1 hPa 0,0 l/m 8,0 km/h (2 Bft) NO 45 5 min 4,3 UV-I 728 W/m 20,9 km/h (4 Bft)
18.04.2019 14:00 22,4 C 22,3 C 22,4 C 34 % 1025,1 hPa 0,0 l/m 8,0 km/h (2 Bft) N-NO 22 5 min 4,4 UV-I 719 W/m 20,9 km/h (4 Bft)
18.04.2019 14:05 22,4 C 22,4 C 22,6 C 34 % 1025,1 hPa 0,0 l/m 6,4 km/h (2 Bft) O 90 5 min 4,4 UV-I 724 W/m 16,1 km/h (3 Bft)
18.04.2019 14:10 22,6 C 22,4 C 22,6 C 35 % 1025,1 hPa 0,0 l/m 6,4 km/h (2 Bft) NO 45 5 min 4,3 UV-I 719 W/m 14,5 km/h (3 Bft)
18.04.2019 14:15 22,7 C 22,6 C 22,7 C 32 % 1025,0 hPa 0,0 l/m 8,0 km/h (2 Bft) O-NO 67 5 min 4,4 UV-I 721 W/m 19,3 km/h (3 Bft)
18.04.2019 14:20 22,8 C 22,7 C 22,8 C 32 % 1024,8 hPa 0,0 l/m 8,0 km/h (2 Bft) SO 135 5 min 4,4 UV-I 722 W/m 17,7 km/h (3 Bft)
18.04.2019 14:25 22,9 C 22,8 C 23,0 C 27 % 1024,8 hPa 0,0 l/m 9,7 km/h (2 Bft) O-NO 67 5 min 4,3 UV-I 717 W/m 19,3 km/h (3 Bft)
18.04.2019 14:30 23,0 C 22,9 C 23,0 C 28 % 1024,8 hPa 0,0 l/m 9,7 km/h (2 Bft) O 90 5 min 4,3 UV-I 719 W/m 20,9 km/h (4 Bft)
18.04.2019 14:35 23,0 C 23,0 C 23,1 C 28 % 1024,8 hPa 0,0 l/m 9,7 km/h (2 Bft) O 90 5 min 4,3 UV-I 714 W/m 25,7 km/h (4 Bft)
18.04.2019 14:40 23,1 C 22,9 C 23,1 C 29 % 1024,7 hPa 0,0 l/m 8,0 km/h (2 Bft) O-SO 112 5 min 4,2 UV-I 707 W/m 19,3 km/h (3 Bft)
18.04.2019 14:45 23,2 C 23,1 C 23,2 C 27 % 1024,8 hPa 0,0 l/m 8,0 km/h (2 Bft) O 90 5 min 4,1 UV-I 703 W/m 19,3 km/h (3 Bft)
18.04.2019 14:50 23,3 C 23,2 C 23,3 C 28 % 1024,7 hPa 0,0 l/m 8,0 km/h (2 Bft) O 90 5 min 4,1 UV-I 700 W/m 16,1 km/h (3 Bft)
18.04.2019 14:55 23,4 C 23,3 C 23,4 C 30 % 1024,7 hPa 0,0 l/m 4,8 km/h (1 Bft) O 90 5 min 4,1 UV-I 698 W/m 19,3 km/h (3 Bft)
18.04.2019 15:00 23,6 C 23,4 C 23,6 C 27 % 1024,7 hPa 0,0 l/m 8,0 km/h (2 Bft) O-SO 112 5 min 4,0 UV-I 696 W/m 16,1 km/h (3 Bft)
18.04.2019 15:05 23,5 C 23,4 C 23,5 C 28 % 1024,6 hPa 0,0 l/m 6,4 km/h (2 Bft) O 90 5 min 4,0 UV-I 691 W/m 19,3 km/h (3 Bft)
18.04.2019 15:10 23,5 C 23,5 C 23,6 C 26 % 1024,6 hPa 0,0 l/m 8,0 km/h (2 Bft) O-SO 112 5 min 3,9 UV-I 687 W/m 19,3 km/h (3 Bft)
18.04.2019 15:15 23,4 C 23,4 C 23,5 C 28 % 1024,6 hPa 0,0 l/m 6,4 km/h (2 Bft) O-NO 67 5 min 3,8 UV-I 670 W/m 16,1 km/h (3 Bft)
18.04.2019 15:20 23,6 C 23,4 C 23,6 C 28 % 1024,5 hPa 0,0 l/m 6,4 km/h (2 Bft) O-SO 112 5 min 3,7 UV-I 671 W/m 19,3 km/h (3 Bft)
18.04.2019 15:25 23,6 C 23,6 C 23,6 C 27 % 1024,5 hPa 0,0 l/m 8,0 km/h (2 Bft) O 90 5 min 3,7 UV-I 670 W/m 19,3 km/h (3 Bft)
18.04.2019 15:30 23,6 C 23,6 C 23,6 C 27 % 1024,4 hPa 0,0 l/m 6,4 km/h (2 Bft) O 90 5 min 3,6 UV-I 666 W/m 19,3 km/h (3 Bft)
18.04.2019 15:35 23,6 C 23,6 C 23,7 C 27 % 1024,5 hPa 0,0 l/m 8,0 km/h (2 Bft) O 90 5 min 3,6 UV-I 657 W/m 19,3 km/h (3 Bft)
18.04.2019 15:40 23,8 C 23,6 C 23,8 C 28 % 1024,4 hPa 0,0 l/m 6,4 km/h (2 Bft) NO 45 5 min 3,5 UV-I 647 W/m 25,7 km/h (4 Bft)
18.04.2019 15:45 23,8 C 23,8 C 23,9 C 26 % 1024,4 hPa 0,0 l/m 9,7 km/h (2 Bft) O 90 5 min 3,4 UV-I 643 W/m 33,8 km/h (5 Bft)
18.04.2019 15:50 23,8 C 23,8 C 23,8 C 29 % 1024,4 hPa 0,0 l/m 8,0 km/h (2 Bft) O 90 5 min 3,4 UV-I 640 W/m 33,8 km/h (5 Bft)
18.04.2019 15:55 24,0 C 23,8 C 24,0 C 28 % 1024,4 hPa 0,0 l/m 6,4 km/h (2 Bft) O 90 5 min 3,3 UV-I 633 W/m 16,1 km/h (3 Bft)
18.04.2019 16:00 23,9 C 23,9 C 24,1 C 26 % 1024,4 hPa 0,0 l/m 8,0 km/h (2 Bft) O 90 5 min 3,2 UV-I 628 W/m 17,7 km/h (3 Bft)
18.04.2019 16:05 23,8 C 23,8 C 23,9 C 28 % 1024,4 hPa 0,0 l/m 8,0 km/h (2 Bft) O 90 5 min 3,1 UV-I 601 W/m 20,9 km/h (4 Bft)
18.04.2019 16:10 23,9 C 23,8 C 23,9 C 27 % 1024,4 hPa 0,0 l/m 8,0 km/h (2 Bft) O 90 5 min 3,1 UV-I 615 W/m 17,7 km/h (3 Bft)
18.04.2019 16:15 23,9 C 23,9 C 24,0 C 28 % 1024,4 hPa 0,0 l/m 9,7 km/h (2 Bft) O-SO 112 5 min 3,0 UV-I 603 W/m 19,3 km/h (3 Bft)
18.04.2019 16:20 23,8 C 23,8 C 23,9 C 26 % 1024,4 hPa 0,0 l/m 8,0 km/h (2 Bft) O 90 5 min 2,9 UV-I 589 W/m 16,1 km/h (3 Bft)
18.04.2019 16:25 23,7 C 23,7 C 23,8 C 29 % 1024,4 hPa 0,0 l/m 8,0 km/h (2 Bft) O 90 5 min 2,7 UV-I 561 W/m 19,3 km/h (3 Bft)
18.04.2019 16:30 23,7 C 23,7 C 23,7 C 28 % 1024,4 hPa 0,0 l/m 8,0 km/h (2 Bft) O-SO 112 5 min 2,7 UV-I 577 W/m 22,5 km/h (4 Bft)
18.04.2019 16:35 23,7 C 23,7 C 23,7 C 29 % 1024,4 hPa 0,0 l/m 4,8 km/h (1 Bft) O-NO 67 5 min 2,7 UV-I 568 W/m 16,1 km/h (3 Bft)
18.04.2019 16:40 23,7 C 23,7 C 23,8 C 27 % 1024,4 hPa 0,0 l/m 8,0 km/h (2 Bft) O 90 5 min 2,6 UV-I 555 W/m 19,3 km/h (3 Bft)
18.04.2019 16:45 23,7 C 23,7 C 23,7 C 29 % 1024,3 hPa 0,0 l/m 4,8 km/h (1 Bft) O 90 5 min 2,4 UV-I 534 W/m 16,1 km/h (3 Bft)
18.04.2019 16:50 23,7 C 23,7 C 23,8 C 29 % 1024,3 hPa 0,0 l/m 6,4 km/h (2 Bft) O 90 5 min 2,4 UV-I 555 W/m 14,5 km/h (3 Bft)
18.04.2019 16:55 23,7 C 23,7 C 23,7 C 28 % 1024,3 hPa 0,0 l/m 6,4 km/h (2 Bft) O-SO 112 5 min 2,4 UV-I 547 W/m 14,5 km/h (3 Bft)
18.04.2019 17:00 23,7 C 23,7 C 23,8 C 29 % 1024,3 hPa 0,0 l/m 11,3 km/h (2 Bft) O 90 5 min 2,3 UV-I 541 W/m 20,9 km/h (4 Bft)
18.04.2019 17:05 23,7 C 23,7 C 23,8 C 29 % 1024,3 hPa 0,0 l/m 8,0 km/h (2 Bft) O 90 5 min 2,3 UV-I 527 W/m 16,1 km/h (3 Bft)
18.04.2019 17:10 23,8 C 23,7 C 23,8 C 28 % 1024,2 hPa 0,0 l/m 4,8 km/h (1 Bft) O 90 5 min 2,2 UV-I 503 W/m 14,5 km/h (3 Bft)
18.04.2019 17:15 23,8 C 23,8 C 23,9 C 28 % 1024,3 hPa 0,0 l/m 8,0 km/h (2 Bft) O 90 5 min 2,1 UV-I 487 W/m 29,0 km/h (5 Bft)
18.04.2019 17:20 23,6 C 23,6 C 23,8 C 28 % 1024,3 hPa 0,0 l/m 8,0 km/h (2 Bft) O 90 5 min 1,9 UV-I 473 W/m 19,3 km/h (3 Bft)
18.04.2019 17:25 23,7 C 23,6 C 23,7 C 28 % 1024,3 hPa 0,0 l/m 6,4 km/h (2 Bft) O-SO 112 5 min 1,8 UV-I 446 W/m 14,5 km/h (3 Bft)
18.04.2019 17:30 23,6 C 23,6 C 23,7 C 29 % 1024,2 hPa 0,0 l/m 4,8 km/h (1 Bft) O-SO 112 5 min 1,7 UV-I 459 W/m 16,1 km/h (3 Bft)
18.04.2019 17:35 23,6 C 23,6 C 23,7 C 27 % 1024,2 hPa 0,0 l/m 6,4 km/h (2 Bft) O 90 5 min 1,7 UV-I 446 W/m 14,5 km/h (3 Bft)
18.04.2019 17:40 23,6 C 23,6 C 23,6 C 27 % 1024,3 hPa 0,0 l/m 6,4 km/h (2 Bft) NO 45 5 min 1,6 UV-I 425 W/m 16,1 km/h (3 Bft)
18.04.2019 17:45 23,7 C 23,6 C 23,7 C 28 % 1024,2 hPa 0,0 l/m 3,2 km/h (1 Bft) O 90 5 min 1,5 UV-I 425 W/m 14,5 km/h (3 Bft)
18.04.2019 17:50 23,7 C 23,7 C 23,7 C 27 % 1024,2 hPa 0,0 l/m 6,4 km/h (2 Bft) O 90 5 min 1,4 UV-I 415 W/m 16,1 km/h (3 Bft)
18.04.2019 17:55 23,6 C 23,6 C 23,7 C 27 % 1024,1 hPa 0,0 l/m 9,7 km/h (2 Bft) NO 45 5 min 1,3 UV-I 397 W/m 29,0 km/h (5 Bft)
18.04.2019 18:00 23,6 C 23,6 C 23,6 C 29 % 1024,2 hPa 0,0 l/m 8,0 km/h (2 Bft) NO 45 5 min 1,3 UV-I 387 W/m 24,1 km/h (4 Bft)
18.04.2019 18:05 23,4 C 23,3 C 23,5 C 29 % 1024,1 hPa 0,0 l/m 8,0 km/h (2 Bft) O-NO 67 5 min 1,3 UV-I 373 W/m 22,5 km/h (4 Bft)
18.04.2019 18:10 23,1 C 23,1 C 23,3 C 30 % 1024,2 hPa 0,0 l/m 9,7 km/h (2 Bft) O-NO 67 5 min 1,2 UV-I 352 W/m 27,4 km/h (5 Bft)
18.04.2019 18:15 22,9 C 22,9 C 23,1 C 29 % 1024,1 hPa 0,0 l/m 9,7 km/h (2 Bft) NO 45 5 min 1,1 UV-I 332 W/m 22,5 km/h (4 Bft)
18.04.2019 18:20 22,8 C 22,8 C 22,9 C 30 % 1024,1 hPa 0,0 l/m 9,7 km/h (2 Bft) O-NO 67 5 min 1,1 UV-I 323 W/m 17,7 km/h (3 Bft)
18.04.2019 18:25 22,8 C 22,8 C 22,8 C 29 % 1024,2 hPa 0,0 l/m 8,0 km/h (2 Bft) O-NO 67 5 min 1,0 UV-I 304 W/m 17,7 km/h (3 Bft)
18.04.2019 18:30 22,7 C 22,7 C 22,8 C 29 % 1024,2 hPa 0,0 l/m 8,0 km/h (2 Bft) O-NO 67 5 min 0,9 UV-I 287 W/m 16,1 km/h (3 Bft)
18.04.2019 18:35 22,8 C 22,7 C 22,8 C 29 % 1024,2 hPa 0,0 l/m 8,0 km/h (2 Bft) O-NO 67 5 min 0,9 UV-I 271 W/m 16,1 km/h (3 Bft)
18.04.2019 18:40 22,8 C 22,8 C 22,9 C 30 % 1024,2 hPa 0,0 l/m 6,4 km/h (2 Bft) NO 45 5 min 0,8 UV-I 260 W/m 22,5 km/h (4 Bft)
18.04.2019 18:45 22,6 C 22,6 C 22,8 C 30 % 1024,2 hPa 0,0 l/m 11,3 km/h (2 Bft) O-NO 67 5 min 0,7 UV-I 244 W/m 24,1 km/h (4 Bft)
18.04.2019 18:50 22,3 C 22,3 C 22,6 C 30 % 1024,3 hPa 0,0 l/m 9,7 km/h (2 Bft) NO 45 5 min 0,7 UV-I 221 W/m 24,1 km/h (4 Bft)
18.04.2019 18:55 22,2 C 22,2 C 22,3 C 31 % 1024,2 hPa 0,0 l/m 8,0 km/h (2 Bft) NO 45 5 min 0,6 UV-I 207 W/m 20,9 km/h (4 Bft)
18.04.2019 19:00 22,1 C 22,1 C 22,2 C 29 % 1024,3 hPa 0,0 l/m 8,0 km/h (2 Bft) O-NO 67 5 min 0,6 UV-I 195 W/m 20,9 km/h (4 Bft)
18.04.2019 19:05 21,9 C 21,9 C 22,1 C 31 % 1024,3 hPa 0,0 l/m 9,7 km/h (2 Bft) NO 45 5 min 0,5 UV-I 179 W/m 22,5 km/h (4 Bft)
18.04.2019 19:10 21,8 C 21,8 C 21,9 C 31 % 1024,3 hPa 0,0 l/m 8,0 km/h (2 Bft) NO 45 5 min 0,5 UV-I 163 W/m 20,9 km/h (4 Bft)
18.04.2019 19:15 21,7 C 21,7 C 21,8 C 30 % 1024,4 hPa 0,0 l/m 11,3 km/h (2 Bft) O-NO 67 5 min 0,0 UV-I 146 W/m 25,7 km/h (4 Bft)
18.04.2019 19:20 21,7 C 21,7 C 21,7 C 30 % 1024,4 hPa 0,0 l/m 8,0 km/h (2 Bft) NO 45 5 min 0,0 UV-I 134 W/m 17,7 km/h (3 Bft)
18.04.2019 19:25 21,6 C 21,6 C 21,7 C 29 % 1024,4 hPa 0,0 l/m 11,3 km/h (2 Bft) NO 45 5 min 0,0 UV-I 120 W/m 27,4 km/h (5 Bft)
18.04.2019 19:30 21,5 C 21,5 C 21,6 C 30 % 1024,5 hPa 0,0 l/m 12,9 km/h (3 Bft) NO 45 5 min 0,0 UV-I 109 W/m 30,6 km/h (5 Bft)
18.04.2019 19:35 21,3 C 21,3 C 21,5 C 30 % 1024,6 hPa 0,0 l/m 9,7 km/h (2 Bft) NO 45 5 min 0,0 UV-I 93 W/m 32,2 km/h (5 Bft)
18.04.2019 19:40 21,2 C 21,2 C 21,3 C 30 % 1024,6 hPa 0,0 l/m 12,9 km/h (3 Bft) NO 45 0 min 0,0 UV-I 70 W/m 27,4 km/h (5 Bft)
18.04.2019 19:45 21,1 C 21,1 C 21,2 C 30 % 1024,7 hPa 0,0 l/m 11,3 km/h (2 Bft) NO 45 5 min 0,0 UV-I 67 W/m 24,1 km/h (4 Bft)
18.04.2019 19:50 20,9 C 20,9 C 21,1 C 30 % 1024,6 hPa 0,0 l/m 12,9 km/h (3 Bft) O-NO 67 0 min 0,0 UV-I 35 W/m 29,0 km/h (5 Bft)
18.04.2019 19:55 20,8 C 20,8 C 20,9 C 31 % 1024,7 hPa 0,0 l/m 9,7 km/h (2 Bft) NO 45 0 min 0,0 UV-I 35 W/m 20,9 km/h (4 Bft)
18.04.2019 20:00 20,7 C 20,7 C 20,8 C 31 % 1024,8 hPa 0,0 l/m 9,7 km/h (2 Bft) O-NO 67 0 min 0,0 UV-I 33 W/m 24,1 km/h (4 Bft)
18.04.2019 20:05 20,7 C 20,7 C 20,8 C 31 % 1024,7 hPa 0,0 l/m 8,0 km/h (2 Bft) NO 45 0 min 0,0 UV-I 32 W/m 17,7 km/h (3 Bft)
18.04.2019 20:10 20,5 C 20,5 C 20,7 C 31 % 1024,9 hPa 0,0 l/m 11,3 km/h (2 Bft) NO 45 0 min 0,0 UV-I 26 W/m 29,0 km/h (5 Bft)
18.04.2019 20:15 20,3 C 20,3 C 20,6 C 32 % 1024,9 hPa 0,0 l/m 9,7 km/h (2 Bft) NO 45 0 min 0,0 UV-I 18 W/m 19,3 km/h (3 Bft)
18.04.2019 20:20 20,3 C 20,3 C 20,3 C 31 % 1025,0 hPa 0,0 l/m 11,3 km/h (2 Bft) NO 45 5 min 0,0 UV-I 14 W/m 24,1 km/h (4 Bft)
18.04.2019 20:25 20,2 C 20,2 C 20,3 C 31 % 1024,9 hPa 0,0 l/m 12,9 km/h (3 Bft) O-NO 67 0 min 0,0 UV-I 12 W/m 25,7 km/h (4 Bft)
18.04.2019 20:30 19,9 C 19,9 C 20,2 C 32 % 1025,1 hPa 0,0 l/m 11,3 km/h (2 Bft) NO 45 0 min 0,0 UV-I 9 W/m 22,5 km/h (4 Bft)
18.04.2019 20:35 19,9 C 19,9 C 20,0 C 32 % 1025,1 hPa 0,0 l/m 9,7 km/h (2 Bft) O-NO 67 0 min 0,0 UV-I 5 W/m 22,5 km/h (4 Bft)
18.04.2019 20:40 19,8 C 19,8 C 19,9 C 33 % 1025,1 hPa 0,0 l/m 9,7 km/h (2 Bft) NO 45 0 min 0,0 UV-I 0 W/m 19,3 km/h (3 Bft)
18.04.2019 20:45 19,7 C 19,7 C 19,8 C 32 % 1025,1 hPa 0,0 l/m 9,7 km/h (2 Bft) NO 45 0 min 0,0 UV-I 0 W/m 25,7 km/h (4 Bft)
18.04.2019 20:50 19,6 C 19,6 C 19,7 C 33 % 1025,1 hPa 0,0 l/m 11,3 km/h (2 Bft) O-NO 67 0 min 0,0 UV-I 0 W/m 24,1 km/h (4 Bft)
18.04.2019 20:55 19,5 C 19,5 C 19,6 C 33 % 1025,3 hPa 0,0 l/m 11,3 km/h (2 Bft) O-NO 67 0 min 0,0 UV-I 0 W/m 25,7 km/h (4 Bft)
18.04.2019 21:00 19,4 C 19,4 C 19,6 C 33 % 1025,4 hPa 0,0 l/m 9,7 km/h (2 Bft) NO 45 0 min 0,0 UV-I 0 W/m 20,9 km/h (4 Bft)
18.04.2019 21:05 19,3 C 19,3 C 19,4 C 33 % 1025,4 hPa 0,0 l/m 9,7 km/h (2 Bft) O-NO 67 0 min 0,0 UV-I 0 W/m 20,9 km/h (4 Bft)
18.04.2019 21:10 19,2 C 19,2 C 19,3 C 34 % 1025,5 hPa 0,0 l/m 9,7 km/h (2 Bft) O-NO 67 0 min 0,0 UV-I 0 W/m 22,5 km/h (4 Bft)
18.04.2019 21:15 19,1 C 19,1 C 19,2 C 34 % 1025,5 hPa 0,0 l/m 11,3 km/h (2 Bft) O-NO 67 0 min 0,0 UV-I 0 W/m 20,9 km/h (4 Bft)
18.04.2019 21:20 19,0 C 19,0 C 19,1 C 34 % 1025,6 hPa 0,0 l/m 12,9 km/h (3 Bft) NO 45 0 min 0,0 UV-I 0 W/m 25,7 km/h (4 Bft)
18.04.2019 21:25 18,9 C 18,9 C 19,0 C 34 % 1025,7 hPa 0,0 l/m 8,0 km/h (2 Bft) NO 45 0 min 0,0 UV-I 0 W/m 17,7 km/h (3 Bft)
18.04.2019 21:30 18,8 C 18,8 C 18,9 C 35 % 1025,7 hPa 0,0 l/m 8,0 km/h (2 Bft) O-NO 67 0 min 0,0 UV-I 0 W/m 19,3 km/h (3 Bft)
18.04.2019 21:35 18,7 C 18,7 C 18,8 C 35 % 1025,7 hPa 0,0 l/m 11,3 km/h (2 Bft) O-NO 67 0 min 0,0 UV-I 0 W/m 22,5 km/h (4 Bft)
18.04.2019 21:40 18,6 C 18,6 C 18,7 C 36 % 1025,8 hPa 0,0 l/m 9,7 km/h (2 Bft) NO 45 0 min 0,0 UV-I 0 W/m 19,3 km/h (3 Bft)
18.04.2019 21:45 18,6 C 18,5 C 18,6 C 35 % 1025,8 hPa 0,0 l/m 9,7 km/h (2 Bft) NO 45 0 min 0,0 UV-I 0 W/m 19,3 km/h (3 Bft)
18.04.2019 21:50 18,4 C 18,4 C 18,6 C 36 % 1025,8 hPa 0,0 l/m 6,4 km/h (2 Bft) NO 45 0 min 0,0 UV-I 0 W/m 14,5 km/h (3 Bft)
18.04.2019 21:55 18,3 C 18,3 C 18,4 C 37 % 1026,1 hPa 0,0 l/m 8,0 km/h (2 Bft) NO 45 0 min 0,0 UV-I 0 W/m 20,9 km/h (4 Bft)
18.04.2019 22:00 18,2 C 18,2 C 18,3 C 37 % 1026,0 hPa 0,0 l/m 6,4 km/h (2 Bft) O-NO 67 0 min 0,0 UV-I 0 W/m 12,9 km/h (3 Bft)
18.04.2019 22:05 18,1 C 18,1 C 18,2 C 38 % 1026,0 hPa 0,0 l/m 6,4 km/h (2 Bft) NO 45 0 min 0,0 UV-I 0 W/m 19,3 km/h (3 Bft)
18.04.2019 22:10 18,0 C 18,0 C 18,1 C 38 % 1026,0 hPa 0,0 l/m 8,0 km/h (2 Bft) O-NO 67 0 min 0,0 UV-I 0 W/m 19,3 km/h (3 Bft)
18.04.2019 22:15 17,9 C 17,9 C 17,9 C 38 % 1026,1 hPa 0,0 l/m 8,0 km/h (2 Bft) O-NO 67 0 min 0,0 UV-I 0 W/m 19,3 km/h (3 Bft)
18.04.2019 22:20 17,8 C 17,8 C 17,9 C 38 % 1026,2 hPa 0,0 l/m 8,0 km/h (2 Bft) O-NO 67 0 min 0,0 UV-I 0 W/m 16,1 km/h (3 Bft)
18.04.2019 22:25 17,7 C 17,7 C 17,8 C 39 % 1026,1 hPa 0,0 l/m 6,4 km/h (2 Bft) NO 45 0 min 0,0 UV-I 0 W/m 17,7 km/h (3 Bft)
18.04.2019 22:30 17,7 C 17,7 C 17,7 C 39 % 1026,2 hPa 0,0 l/m 6,4 km/h (2 Bft) NO 45 0 min 0,0 UV-I 0 W/m 22,5 km/h (4 Bft)
18.04.2019 22:35 17,7 C 17,6 C 17,7 C 39 % 1026,1 hPa 0,0 l/m 8,0 km/h (2 Bft) O-NO 67 0 min 0,0 UV-I 0 W/m 14,5 km/h (3 Bft)
18.04.2019 22:40 17,6 C 17,6 C 17,7 C 39 % 1026,2 hPa 0,0 l/m 6,4 km/h (2 Bft) O-NO 67 0 min 0,0 UV-I 0 W/m 17,7 km/h (3 Bft)
18.04.2019 22:45 17,5 C 17,5 C 17,6 C 39 % 1026,2 hPa 0,0 l/m 8,0 km/h (2 Bft) O-NO 67 0 min 0,0 UV-I 0 W/m 20,9 km/h (4 Bft)
18.04.2019 22:50 17,4 C 17,4 C 17,6 C 39 % 1026,2 hPa 0,0 l/m 8,0 km/h (2 Bft) NO 45 0 min 0,0 UV-I 0 W/m 16,1 km/h (3 Bft)
18.04.2019 22:55 17,4 C 17,4 C 17,5 C 39 % 1026,2 hPa 0,0 l/m 8,0 km/h (2 Bft) O-NO 67 0 min 0,0 UV-I 0 W/m 25,7 km/h (4 Bft)
18.04.2019 23:00 17,4 C 17,3 C 17,4 C 39 % 1026,2 hPa 0,0 l/m 8,0 km/h (2 Bft) O-NO 67 0 min 0,0 UV-I 0 W/m 17,7 km/h (3 Bft)
18.04.2019 23:05 17,4 C 17,3 C 17,4 C 39 % 1026,2 hPa 0,0 l/m 8,0 km/h (2 Bft) NO 45 0 min 0,0 UV-I 0 W/m 17,7 km/h (3 Bft)
18.04.2019 23:10 17,3 C 17,3 C 17,3 C 39 % 1026,3 hPa 0,0 l/m 6,4 km/h (2 Bft) O-NO 67 0 min 0,0 UV-I 0 W/m 14,5 km/h (3 Bft)
18.04.2019 23:15 17,2 C 17,2 C 17,3 C 40 % 1026,4 hPa 0,0 l/m 6,4 km/h (2 Bft) O-NO 67 0 min 0,0 UV-I 0 W/m 16,1 km/h (3 Bft)
18.04.2019 23:20 17,2 C 17,2 C 17,2 C 40 % 1026,3 hPa 0,0 l/m 6,4 km/h (2 Bft) NO 45 0 min 0,0 UV-I 0 W/m 17,7 km/h (3 Bft)
18.04.2019 23:25 17,1 C 17,1 C 17,2 C 40 % 1026,4 hPa 0,0 l/m 6,4 km/h (2 Bft) O-NO 67 0 min 0,0 UV-I 0 W/m 17,7 km/h (3 Bft)
18.04.2019 23:30 17,0 C 17,0 C 17,1 C 40 % 1026,4 hPa 0,0 l/m 8,0 km/h (2 Bft) O-NO 67 0 min 0,0 UV-I 0 W/m 20,9 km/h (4 Bft)
18.04.2019 23:35 17,0 C 16,9 C 17,1 C 41 % 1026,4 hPa 0,0 l/m 6,4 km/h (2 Bft) NO 45 0 min 0,0 UV-I 0 W/m 16,1 km/h (3 Bft)
18.04.2019 23:40 16,9 C 16,8 C 17,0 C 41 % 1026,5 hPa 0,0 l/m 6,4 km/h (2 Bft) O-NO 67 0 min 0,0 UV-I 0 W/m 12,9 km/h (3 Bft)
18.04.2019 23:45 16,8 C 16,8 C 16,8 C 41 % 1026,5 hPa 0,0 l/m 4,8 km/h (1 Bft) O-NO 67 0 min 0,0 UV-I 0 W/m 12,9 km/h (3 Bft)
18.04.2019 23:50 16,8 C 16,7 C 16,8 C 41 % 1026,5 hPa 0,0 l/m 8,0 km/h (2 Bft) O-NO 67 0 min 0,0 UV-I 0 W/m 17,7 km/h (3 Bft)
18.04.2019 23:55 16,7 C 16,7 C 16,8 C 41 % 1026,6 hPa 0,0 l/m 6,4 km/h (2 Bft) NO 45 0 min 0,0 UV-I 0 W/m 16,1 km/h (3 Bft)
_ Min-Zeit 02:35 02:35 02:35 15:10 00:00 - 00:10 - - - - - 02:00
Minimum _ 12,4 C 12,4 C 12,6 C 26 % 1024,0 hPa - 0,0 km/h (0 Bft) - - - - - 0,0 km/h (0 Bft)
_ Max-Zeit 16:00 16:00 16:00 02:20 23:55 00:00 19:30 - - 09:05 13:20 13:50 15:45
Maximum _ 24,1 C 23,9 C 24,1 C 62 % 1026,6 hPa 0,0 l/m 12,9 km/h
NO (3 Bft)
- - 5 min 4,5 UV-I 735 W/m 33,8 km/h
O-NO (5 Bft)
Durchschnitt _ 17,9 C 17,9 C 18,0 C 42 % 1025,1 hPa #0,0 l/m 5,6 km/h (2 Bft) O-NO - #10:45 h 2,8 UV-I 416 W/m 14,4 km/h (3 Bft)